Clapham, New Mexico
Current Conditions -  °F | °C
As of 11:55 AM on Tuesday 21 Oct 2014 (Local Time) from KCAO Reporting Station
Few Clouds Few Clouds  
Wind Chill: 71°   Ceiling: Unl
Heat Index: 71°   Visibility: 10mi
Dew Point: 44°   Wind: 22mph
Humidity: 38%   Direction: 200°SSW
Pressure: 30.13"   Gusts: 29mph
Location:  36.2639°N, 103.376°W
Report Text: KCAO 211755Z AUTO 20019G25KT 10SM FEW047 22/07 A3013 RMK AO2 SLP155 T02170067 10217 20094 58009
Loading
Personal Weather Stations






























Interactive Weather Map
Tropical Storm Tracking
New forecast layout! Learn more

10-Day Weather Forecast

Advertisements
Track Severe Weather on mobile